Time;durP1;ratioP1;P1;durP2;ratioP2;P2;SDS_P1;SDS_P2;PMS_P1;PMS_P2;Temp;Humidity;BMP_temperature;BMP_pressure;BME280_temperature;BME280_humidity;BME280_pressure;Samples;Min_cycle;Max_cycle;Signal;HPM_P1;HPM_P2
2021/09/13 00:01:16;;;;;;;5.20;4.80;;;20.60;38.10;;;;;;10287338;28;20236;-72
2021/09/13 00:06:22;;;;;;;5.13;4.73;;;20.50;38.40;;;;;;10280114;28;20286;-72
2021/09/13 00:11:25;;;;;;;5.30;4.90;;;20.50;38.00;;;;;;10280308;28;20234;-72
2021/09/13 00:16:30;;;;;;;4.60;4.30;;;20.40;38.00;;;;;;10281012;28;20232;-72
2021/09/13 00:21:33;;;;;;;4.73;4.23;;;20.30;38.30;;;;;;10279846;28;20308;-72
2021/09/13 00:26:36;;;;;;;5.23;4.83;;;20.20;38.20;;;;;;10281162;28;20683;-72
2021/09/13 00:31:41;;;;;;;5.50;5.00;;;20.20;38.30;;;;;;10280782;28;20253;-72
2021/09/13 00:36:44;;;;;;;4.97;4.57;;;20.20;38.40;;;;;;10279493;28;20724;-72
2021/09/13 00:41:47;;;;;;;4.93;4.63;;;20.10;38.20;;;;;;10281240;28;20231;-72
2021/09/13 00:46:53;;;;;;;5.17;4.77;;;20.00;38.30;;;;;;10277285;28;20247;-73
2021/09/13 00:51:56;;;;;;;6.27;4.80;;;19.90;38.70;;;;;;10278488;28;20239;-72
2021/09/13 00:57:00;;;;;;;6.93;5.73;;;19.90;38.60;;;;;;10279172;28;20219;-72
2021/09/13 01:02:05;;;;;;;6.60;6.00;;;19.90;38.70;;;;;;10282508;28;20239;-72
2021/09/13 01:07:08;;;;;;;8.33;6.17;;;19.90;39.00;;;;;;10281739;28;20255;-72
2021/09/13 01:12:12;;;;;;;6.23;5.37;;;19.80;38.70;;;;;;10279892;28;20230;-72
2021/09/13 01:17:17;;;;;;;5.57;5.17;;;19.70;38.80;;;;;;10282326;28;20236;-72
2021/09/13 01:22:21;;;;;;;4.77;4.47;;;19.60;39.40;;;;;;10281856;28;20236;-72
2021/09/13 01:27:25;;;;;;;4.67;4.37;;;19.60;40.00;;;;;;10283086;28;20224;-72
2021/09/13 01:32:28;;;;;;;5.77;5.37;;;19.60;39.50;;;;;;10289012;28;20324;-72
2021/09/13 01:37:31;;;;;;;5.33;4.70;;;19.60;39.30;;;;;;10281967;28;20228;-72
2021/09/13 01:42:36;;;;;;;5.73;5.23;;;19.60;39.20;;;;;;10277152;28;20239;-72
2021/09/13 01:47:41;;;;;;;4.93;4.63;;;19.50;39.40;;;;;;10277112;28;20235;-72
2021/09/13 01:52:44;;;;;;;4.03;3.73;;;19.50;39.10;;;;;;10277654;28;20835;-72
2021/09/13 01:57:49;;;;;;;4.80;4.43;;;19.50;38.90;;;;;;10270169;28;20227;-72
2021/09/13 02:02:53;;;;;;;5.07;4.67;;;19.40;39.20;;;;;;10272028;28;20315;-72
2021/09/13 02:07:56;;;;;;;4.17;3.87;;;19.40;39.20;;;;;;10276713;28;20242;-72
2021/09/13 02:13:01;;;;;;;4.33;4.03;;;19.40;39.10;;;;;;10271030;28;20758;-72
2021/09/13 02:18:05;;;;;;;4.30;3.90;;;19.30;39.40;;;;;;10277299;28;20243;-72
2021/09/13 02:23:08;;;;;;;5.30;4.90;;;19.30;39.10;;;;;;10281200;28;20239;-72
2021/09/13 02:28:13;;;;;;;4.67;4.27;;;19.30;39.10;;;;;;10281912;28;20610;-72
2021/09/13 02:33:17;;;;;;;4.90;4.50;;;19.20;39.30;;;;;;10286701;28;20231;-72
2021/09/13 02:38:20;;;;;;;4.33;4.03;;;19.20;39.20;;;;;;10285877;28;20238;-72
2021/09/13 02:43:25;;;;;;;4.30;4.00;;;19.20;39.10;;;;;;10286192;28;20227;-72
2021/09/13 02:48:28;;;;;;;4.10;3.80;;;19.20;39.30;;;;;;10285618;28;20231;-73
2021/09/13 02:53:34;;;;;;;4.63;4.23;;;19.10;39.00;;;;;;10283342;28;20769;-72
2021/09/13 02:58:38;;;;;;;4.93;4.60;;;19.10;39.10;;;;;;10286105;28;20227;-72
2021/09/13 03:03:43;;;;;;;5.20;4.80;;;19.10;39.30;;;;;;10277931;28;20232;-72
2021/09/13 03:08:46;;;;;;;5.47;4.97;;;19.00;39.20;;;;;;10276449;28;20229;-72
2021/09/13 03:13:51;;;;;;;5.17;4.67;;;19.00;39.10;;;;;;10283647;28;20710;-72
2021/09/13 03:18:54;;;;;;;5.50;5.10;;;19.00;39.30;;;;;;10278809;28;20230;-72
2021/09/13 03:23:57;;;;;;;5.20;4.70;;;18.90;38.90;;;;;;10282036;28;20241;-72
2021/09/13 03:29:02;;;;;;;5.20;4.63;;;18.80;38.80;;;;;;10281002;28;20227;-72
2021/09/13 03:34:06;;;;;;;4.57;4.17;;;18.80;38.90;;;;;;10279816;28;20239;-72
2021/09/13 03:39:09;;;;;;;4.80;4.40;;;18.70;38.90;;;;;;10280510;28;20232;-72
2021/09/13 03:44:14;;;;;;;5.43;4.50;;;18.60;38.90;;;;;;10283811;28;20239;-72
2021/09/13 03:49:17;;;;;;;5.00;4.50;;;18.60;39.20;;;;;;10281360;28;20242;-72
2021/09/13 03:54:20;;;;;;;4.47;4.17;;;18.50;39.10;;;;;;10277697;28;20721;-72
2021/09/13 03:59:25;;;;;;;4.30;4.00;;;18.50;39.10;;;;;;10271586;28;20231;-72
2021/09/13 04:04:29;;;;;;;5.33;4.70;;;18.40;39.30;;;;;;10270435;28;20233;-72
2021/09/13 04:14:56;;;;;;;5.43;4.90;;;18.30;39.00;;;;;;10281532;28;20227;-72
2021/09/13 04:19:59;;;;;;;4.70;4.30;;;18.30;39.00;;;;;;10277096;28;20235;-72
2021/09/13 04:25:03;;;;;;;5.50;4.83;;;18.20;38.80;;;;;;10279933;28;20226;-72
2021/09/13 04:30:09;;;;;;;5.10;4.63;;;18.10;38.90;;;;;;10279194;28;20596;-72
2021/09/13 04:35:13;;;;;;;5.43;4.93;;;18.00;39.20;;;;;;10273974;28;20234;-72
2021/09/13 04:40:16;;;;;;;5.50;3.97;;;17.90;39.00;;;;;;10279625;28;20231;-72
2021/09/13 04:45:20;;;;;;;8.30;4.63;;;17.80;39.10;;;;;;10268901;28;20285;-73
2021/09/13 04:50:24;;;;;;;4.10;3.67;;;17.70;39.30;;;;;;10273848;28;20239;-73
2021/09/13 04:55:27;;;;;;;4.60;4.30;;;17.70;39.00;;;;;;10274520;28;20232;-73
2021/09/13 05:00:31;;;;;;;6.53;4.30;;;17.70;39.10;;;;;;10274846;28;20224;-73
2021/09/13 05:05:35;;;;;;;4.27;3.87;;;17.60;39.20;;;;;;10280829;28;20278;-72
2021/09/13 05:10:38;;;;;;;5.60;4.83;;;17.60;39.00;;;;;;10281125;28;20228;-73
2021/09/13 05:15:43;;;;;;;6.73;4.90;;;17.50;39.20;;;;;;10279563;28;20661;-71
2021/09/13 05:20:46;;;;;;;5.27;4.80;;;17.50;39.60;;;;;;10279084;28;20241;-72
2021/09/13 05:25:49;;;;;;;5.10;4.60;;;17.40;39.50;;;;;;10283903;28;20222;-72
2021/09/13 05:30:54;;;;;;;5.27;4.87;;;17.40;39.80;;;;;;10276843;28;20610;-72
2021/09/13 05:35:57;;;;;;;5.27;4.87;;;17.40;40.30;;;;;;10272208;28;20235;-72
2021/09/13 05:41:00;;;;;;;5.20;4.77;;;17.40;40.10;;;;;;10279972;28;20224;-72
2021/09/13 05:46:04;;;;;;;5.87;5.47;;;17.40;40.20;;;;;;10277338;28;20224;-72
2021/09/13 05:51:08;;;;;;;5.70;5.20;;;17.40;40.60;;;;;;10278022;28;20234;-72
2021/09/13 05:56:11;;;;;;;5.43;4.87;;;17.40;40.40;;;;;;10280935;28;20713;-72
2021/09/13 06:01:15;;;;;;;6.77;5.40;;;17.40;40.40;;;;;;10274274;28;20235;-72
2021/09/13 06:06:19;;;;;;;6.00;5.50;;;17.50;41.10;;;;;;10278908;28;20286;-72
2021/09/13 06:11:26;;;;;;;5.97;5.47;;;17.50;40.90;;;;;;10275089;28;20242;-72
2021/09/13 06:16:31;;;;;;;5.53;5.13;;;17.50;41.10;;;;;;10273810;28;20234;-71
2021/09/13 06:21:34;;;;;;;5.83;5.20;;;17.50;41.70;;;;;;10272365;28;20231;-72
2021/09/13 06:26:38;;;;;;;6.17;5.70;;;17.60;42.30;;;;;;10271809;28;20250;-72
2021/09/13 06:31:42;;;;;;;6.83;6.23;;;17.70;41.80;;;;;;10269285;28;20235;-72
2021/09/13 06:36:46;;;;;;;6.20;5.60;;;17.70;42.50;;;;;;10267075;28;20238;-72
2021/09/13 06:41:50;;;;;;;6.40;5.80;;;17.80;42.40;;;;;;10278427;28;20243;-72
2021/09/13 06:47:04;;;;;;;6.90;6.40;;;17.90;42.50;;;;;;10274711;28;20227;-72
2021/09/13 06:52:07;;;;;;;6.73;6.13;;;17.90;43.10;;;;;;10275841;28;20218;-71
2021/09/13 06:57:10;;;;;;;7.67;6.97;;;18.00;42.70;;;;;;10275442;28;20228;-72
2021/09/13 07:02:15;;;;;;;7.30;6.70;;;18.10;43.00;;;;;;10272663;28;20702;-74
2021/09/13 07:07:18;;;;;;;7.77;7.10;;;18.20;43.80;;;;;;10272894;28;20228;-72
2021/09/13 07:12:22;;;;;;;7.57;6.80;;;18.30;43.60;;;;;;10277710;28;20575;-72
2021/09/13 07:17:27;;;;;;;8.33;7.43;;;18.50;44.00;;;;;;10284426;28;20223;-72
2021/09/13 07:22:30;;;;;;;9.60;8.80;;;18.50;44.80;;;;;;10288091;28;20241;-72
2021/09/13 07:27:34;;;;;;;9.33;8.63;;;18.70;44.40;;;;;;10286114;28;20238;-72
2021/09/13 07:32:39;;;;;;;9.40;8.70;;;18.80;44.50;;;;;;10288647;28;20598;-72
2021/09/13 07:37:42;;;;;;;9.80;9.00;;;19.00;45.60;;;;;;10285561;28;20219;-72
2021/09/13 07:42:45;;;;;;;9.53;8.73;;;19.10;45.00;;;;;;10283343;28;20223;-71
2021/09/13 07:47:51;;;;;;;9.90;9.10;;;19.30;45.10;;;;;;10283321;28;20701;-73
2021/09/13 07:52:55;;;;;;;10.97;9.87;;;19.40;45.80;;;;;;10280241;28;20493;-73
2021/09/13 07:57:58;;;;;;;9.97;9.07;;;19.60;45.40;;;;;;10275399;28;20224;-73
2021/09/13 08:03:17;;;;;;;8.87;8.07;;;19.80;45.40;;;;;;10270360;28;20886;-73
2021/09/13 08:08:20;;;;;;;7.90;7.27;;;20.00;46.10;;;;;;10273754;28;20509;-74
2021/09/13 08:13:24;;;;;;;8.47;6.43;;;20.20;45.50;;;;;;10267460;28;20243;-73
2021/09/13 08:18:31;;;;;;;7.27;6.77;;;20.40;45.30;;;;;;10273680;28;20244;-72
2021/09/13 08:23:35;;;;;;;7.40;6.47;;;20.60;45.60;;;;;;10269522;28;20223;-73
2021/09/13 08:28:38;;;;;;;6.33;5.83;;;20.80;45.20;;;;;;10268692;28;20223;-72
2021/09/13 08:33:43;;;;;;;14.67;5.93;;;21.10;44.60;;;;;;10268612;28;20319;-72
2021/09/13 08:38:46;;;;;;;6.20;5.70;;;21.40;44.60;;;;;;10270749;28;20230;-72
2021/09/13 08:43:49;;;;;;;5.57;5.07;;;21.70;44.20;;;;;;10278283;28;20242;-74
2021/09/13 08:48:59;;;;;;;7.13;5.87;;;22.00;43.90;;;;;;10276857;28;20238;-75
2021/09/13 08:54:06;;;;;;;6.03;5.53;;;22.20;43.30;;;;;;10284837;28;20236;-75
2021/09/13 08:59:14;;;;;;;5.70;5.20;;;22.40;42.30;;;;;;10281282;28;20227;-75
2021/09/13 09:04:19;;;;;;;6.87;6.30;;;22.60;41.70;;;;;;10273598;28;20250;-75
2021/09/13 09:09:23;;;;;;;6.07;5.67;;;22.80;41.80;;;;;;10276127;28;20346;-75
2021/09/13 09:14:41;;;;;;;5.70;5.30;;;22.90;41.70;;;;;;10273066;28;20223;-75
2021/09/13 09:20:01;;;;;;;4.53;4.23;;;23.10;40.90;;;;;;10271168;28;20319;-74
2021/09/13 09:25:07;;;;;;;4.97;4.33;;;23.40;40.90;;;;;;10272495;28;20234;-75
2021/09/13 09:30:14;;;;;;;4.90;3.90;;;23.60;41.50;;;;;;10271917;28;20228;-75
2021/09/13 09:35:19;;;;;;;4.30;3.90;;;23.90;39.90;;;;;;10267528;28;20235;-74
2021/09/13 09:40:29;;;;;;;3.13;2.93;;;24.10;40.10;;;;;;10269955;28;20231;-74
2021/09/13 09:45:33;;;;;;;3.73;2.80;;;24.40;38.40;;;;;;10271725;28;20223;-75
2021/09/13 09:50:38;;;;;;;3.87;3.57;;;24.70;39.30;;;;;;10270161;28;20223;-75
2021/09/13 09:55:41;;;;;;;5.20;4.40;;;24.90;39.00;;;;;;10276657;28;20247;-74
2021/09/13 10:00:46;;;;;;;3.90;3.60;;;25.10;38.90;;;;;;10273275;28;20615;-74
2021/09/13 10:05:51;;;;;;;3.20;2.90;;;25.20;37.10;;;;;;10273457;28;20247;-75
2021/09/13 10:10:55;;;;;;;3.20;2.90;;;25.40;37.00;;;;;;10271237;28;20232;-73
2021/09/13 10:15:58;;;;;;;2.77;2.57;;;25.50;36.70;;;;;;10272896;28;20228;-72
2021/09/13 10:21:03;;;;;;;2.90;2.70;;;25.60;36.40;;;;;;10269797;28;20227;-74
2021/09/13 10:26:07;;;;;;;3.03;2.43;;;25.60;35.40;;;;;;10282683;28;20235;-74
2021/09/13 10:31:10;;;;;;;3.30;3.00;;;25.80;36.40;;;;;;10272302;28;20243;-73
2021/09/13 10:36:45;;;;;;;3.17;2.87;;;26.00;36.30;;;;;;10270041;28;20242;-75
2021/09/13 10:42:06;;;;;;;3.37;3.10;;;26.20;35.40;;;;;;10278551;28;20232;-74
2021/09/13 10:47:12;;;;;;;4.00;3.50;;;26.40;35.80;;;;;;10270024;28;20223;-74
2021/09/13 10:52:36;;;;;;;3.67;3.37;;;26.50;35.60;;;;;;10288228;28;20231;-75
2021/09/13 10:58:03;;;;;;;3.90;3.70;;;26.70;34.70;;;;;;10275514;28;20242;-73
2021/09/13 11:03:39;;;;;;;3.40;3.20;;;26.80;34.40;;;;;;10281848;28;20237;-75
2021/09/13 11:08:46;;;;;;;4.87;3.80;;;26.80;33.70;;;;;;10264013;28;20227;-74
2021/09/13 11:13:57;;;;;;;4.13;3.83;;;26.90;33.70;;;;;;10289255;28;20925;-75
2021/09/13 11:19:02;;;;;;;3.60;3.40;;;27.00;32.90;;;;;;10288178;28;20227;-75
2021/09/13 11:24:09;;;;;;;3.63;3.43;;;27.10;35.10;;;;;;10284902;28;20234;-75
2021/09/13 11:29:14;;;;;;;3.20;3.00;;;27.10;33.10;;;;;;10281449;28;20231;-74
2021/09/13 11:34:27;;;;;;;3.87;3.63;;;27.20;33.60;;;;;;10284592;28;20228;-75
2021/09/13 11:39:34;;;;;;;3.70;3.50;;;27.30;31.90;;;;;;10281474;28;20238;-75
2021/09/13 11:44:41;;;;;;;3.60;3.40;;;27.30;31.80;;;;;;10268863;28;20235;-74
2021/09/13 11:49:45;;;;;;;3.50;3.30;;;27.20;32.20;;;;;;10277607;28;20239;-74
2021/09/13 11:54:53;;;;;;;3.80;3.60;;;27.30;32.80;;;;;;10268504;28;20228;-75
2021/09/13 11:59:57;;;;;;;3.60;3.30;;;27.30;31.50;;;;;;10285369;28;20686;-75
2021/09/13 12:05:08;;;;;;;4.13;3.47;;;27.40;32.20;;;;;;10275825;28;20744;-75
2021/09/13 12:10:17;;;;;;;3.80;3.50;;;27.40;30.90;;;;;;10281118;28;20302;-74
2021/09/13 12:15:21;;;;;;;4.10;3.40;;;27.40;30.30;;;;;;10276108;28;20337;-75
2021/09/13 12:20:30;;;;;;;3.57;3.37;;;27.40;31.50;;;;;;10284080;28;20252;-78
2021/09/13 12:25:40;;;;;;;3.27;3.07;;;27.40;31.30;;;;;;10279123;28;20228;-77
2021/09/13 12:30:44;;;;;;;3.40;3.20;;;27.40;29.90;;;;;;10277643;28;20238;-75
2021/09/13 12:35:49;;;;;;;3.60;3.30;;;27.50;31.50;;;;;;10283205;28;20318;-75
2021/09/13 12:40:57;;;;;;;3.20;3.00;;;27.50;30.80;;;;;;10273965;28;20236;-76
2021/09/13 12:46:05;;;;;;;3.70;3.40;;;27.50;30.00;;;;;;10274809;28;20809;-76
2021/09/13 12:51:13;;;;;;;3.37;3.17;;;27.60;30.50;;;;;;10273427;28;20235;-76
2021/09/13 12:56:17;;;;;;;3.50;3.30;;;27.60;30.00;;;;;;10268752;28;20235;-75
2021/09/13 13:01:28;;;;;;;3.50;3.30;;;27.60;30.00;;;;;;10273679;28;20230;-76
2021/09/13 13:06:37;;;;;;;3.23;3.03;;;27.60;30.00;;;;;;10281746;28;20235;-76
2021/09/13 13:11:42;;;;;;;3.40;3.10;;;27.60;30.10;;;;;;10280134;28;20330;-77
2021/09/13 13:16:46;;;;;;;4.00;3.17;;;27.60;29.80;;;;;;10280528;28;20234;-76
2021/09/13 13:21:51;;;;;;;3.23;3.03;;;27.60;30.00;;;;;;10275215;28;20247;-76
2021/09/13 13:26:56;;;;;;;3.50;3.30;;;27.50;30.00;;;;;;10279245;28;20235;-76
2021/09/13 13:31:59;;;;;;;3.40;3.20;;;27.50;30.00;;;;;;10278389;28;20282;-75
2021/09/13 13:37:03;;;;;;;3.53;3.30;;;27.50;30.00;;;;;;10261367;28;20240;-75
2021/09/13 13:42:08;;;;;;;3.53;3.33;;;27.40;29.60;;;;;;10280771;28;20246;-76
2021/09/13 13:47:11;;;;;;;3.10;2.90;;;27.40;29.90;;;;;;10266554;28;20234;-75
2021/09/13 13:52:15;;;;;;;3.10;2.90;;;27.40;29.90;;;;;;10273509;28;20235;-75
2021/09/13 13:57:19;;;;;;;3.30;3.10;;;27.40;29.90;;;;;;10274403;28;20234;-75
2021/09/13 14:02:23;;;;;;;3.13;2.93;;;27.50;29.30;;;;;;10275877;28;20839;-75
2021/09/13 14:07:26;;;;;;;3.20;2.90;;;27.50;29.80;;;;;;10271321;28;20333;-75
2021/09/13 14:12:31;;;;;;;3.27;3.07;;;27.60;29.50;;;;;;10272933;28;20874;-74
2021/09/13 14:17:35;;;;;;;3.20;3.00;;;27.60;29.00;;;;;;10262320;28;20227;-76
2021/09/13 14:22:38;;;;;;;3.20;3.00;;;27.70;29.30;;;;;;10272559;28;20235;-75
2021/09/13 14:27:43;;;;;;;4.30;3.10;;;27.70;28.90;;;;;;10283268;28;20311;-75
2021/09/13 14:32:46;;;;;;;3.50;3.20;;;27.80;28.40;;;;;;10277759;28;20243;-75
2021/09/13 14:37:49;;;;;;;2.93;2.73;;;27.80;28.90;;;;;;10275627;28;20227;-75
2021/09/13 14:42:54;;;;;;;3.30;3.10;;;27.80;28.40;;;;;;10282511;28;20231;-73
2021/09/13 14:47:57;;;;;;;3.40;3.20;;;27.80;28.30;;;;;;10283075;28;20606;-74
2021/09/13 14:53:00;;;;;;;3.30;3.00;;;27.80;28.50;;;;;;10283244;28;20230;-73
2021/09/13 14:58:05;;;;;;;3.20;3.00;;;27.80;29.20;;;;;;10274329;28;20497;-74
2021/09/13 15:03:09;;;;;;;2.90;2.70;;;27.90;28.00;;;;;;10278478;28;20236;-73
2021/09/13 15:08:13;;;;;;;3.03;2.83;;;27.90;28.40;;;;;;10265957;28;20294;-74
2021/09/13 15:13:18;;;;;;;3.67;3.27;;;27.90;28.30;;;;;;10274838;28;20714;-75
2021/09/13 15:18:21;;;;;;;3.20;3.00;;;27.90;27.80;;;;;;10279709;28;20223;-75
2021/09/13 15:23:24;;;;;;;3.00;2.80;;;27.90;28.20;;;;;;10283067;28;20236;-74
2021/09/13 15:28:29;;;;;;;3.23;3.03;;;27.90;28.20;;;;;;10276934;28;20224;-73
2021/09/13 15:33:32;;;;;;;3.40;3.10;;;27.90;27.70;;;;;;10277056;28;20795;-74
2021/09/13 15:38:40;;;;;;;3.37;3.10;;;27.90;28.10;;;;;;10282215;28;20223;-74
2021/09/13 15:43:45;;;;;;;3.13;2.93;;;28.00;28.20;;;;;;10281669;28;20234;-75
2021/09/13 15:48:49;;;;;;;3.37;3.17;;;28.00;27.70;;;;;;10281901;28;20223;-75
2021/09/13 15:53:52;;;;;;;3.47;3.17;;;28.00;28.10;;;;;;10289015;28;20242;-75
2021/09/13 15:58:57;;;;;;;3.50;3.30;;;28.00;28.10;;;;;;10280503;28;20332;-74
2021/09/13 16:04:00;;;;;;;3.47;3.27;;;28.00;27.80;;;;;;10266751;28;20232;-74
2021/09/13 16:09:04;;;;;;;4.67;3.10;;;28.00;28.10;;;;;;10278787;28;20219;-74
2021/09/13 16:14:08;;;;;;;3.30;3.07;;;28.00;27.90;;;;;;10267465;28;20647;-74
2021/09/13 16:19:11;;;;;;;3.60;3.30;;;28.00;27.70;;;;;;10266452;28;20264;-76
2021/09/13 16:24:22;;;;;;;3.27;3.07;;;28.00;28.00;;;;;;10278117;28;20749;-76
2021/09/13 16:29:27;;;;;;;3.40;3.10;;;28.10;28.10;;;;;;10283618;28;20243;-76
2021/09/13 16:34:32;;;;;;;3.80;3.40;;;28.10;28.00;;;;;;10280402;28;20297;-76
2021/09/13 16:39:36;;;;;;;3.47;3.23;;;28.20;28.40;;;;;;10278503;28;20241;-75
2021/09/13 16:44:43;;;;;;;4.70;4.00;;;28.20;28.60;;;;;;10271125;28;20233;-75
2021/09/13 16:49:46;;;;;;;7.30;4.50;;;28.30;28.50;;;;;;10280373;28;20232;-75
2021/09/13 16:54:49;;;;;;;5.07;4.27;;;28.20;28.60;;;;;;10277629;28;20235;-75
2021/09/13 16:59:54;;;;;;;4.50;3.90;;;28.20;28.70;;;;;;10282328;28;20222;-76
2021/09/13 17:04:57;;;;;;;4.60;4.20;;;28.10;28.50;;;;;;10270271;28;20234;-74
2021/09/13 17:10:01;;;;;;;4.60;3.70;;;27.90;28.50;;;;;;10276104;28;20231;-74
2021/09/13 17:15:07;;;;;;;6.13;4.00;;;27.80;28.80;;;;;;10269228;28;20219;-74
2021/09/13 17:20:11;;;;;;;4.30;4.00;;;27.60;29.00;;;;;;10260465;28;20235;-74
2021/09/13 17:25:15;;;;;;;4.63;4.30;;;27.50;29.30;;;;;;10262176;28;20238;-75
2021/09/13 17:30:20;;;;;;;4.00;3.60;;;27.30;29.40;;;;;;10270880;28;20902;-75
2021/09/13 17:35:23;;;;;;;4.47;4.17;;;27.10;29.70;;;;;;10269566;28;20232;-74
2021/09/13 17:40:28;;;;;;;3.97;3.67;;;27.00;29.70;;;;;;10267621;28;20886;-72
2021/09/13 17:45:33;;;;;;;4.13;3.70;;;26.90;29.70;;;;;;10267669;28;20255;-74
2021/09/13 17:50:37;;;;;;;4.10;3.80;;;26.70;29.80;;;;;;10278198;28;20544;-71
2021/09/13 17:55:41;;;;;;;4.07;3.80;;;26.60;29.70;;;;;;10275391;28;20752;-74
2021/09/13 18:00:46;;;;;;;6.13;4.13;;;26.40;29.80;;;;;;10313541;23;20711;-70
2021/09/13 18:05:49;;;;;;;3.87;3.57;;;26.30;30.10;;;;;;10363877;28;20265;-70
2021/09/13 18:10:52;;;;;;;4.00;3.70;;;26.20;30.10;;;;;;10351060;28;20234;-70
2021/09/13 18:15:58;;;;;;;3.77;3.47;;;26.00;30.20;;;;;;10330137;28;20269;-70
2021/09/13 18:21:03;;;;;;;5.20;4.50;;;25.90;30.50;;;;;;10312694;28;20219;-70
2021/09/13 18:26:06;;;;;;;4.17;3.77;;;25.80;30.30;;;;;;10322587;28;20268;-69
2021/09/13 18:31:11;;;;;;;4.07;3.67;;;25.70;30.60;;;;;;10316715;28;20273;-71
2021/09/13 18:36:14;;;;;;;4.30;4.00;;;25.50;30.90;;;;;;10329573;28;20225;-70
2021/09/13 18:41:17;;;;;;;4.50;4.10;;;25.40;30.80;;;;;;10312256;28;20234;-70
2021/09/13 18:46:22;;;;;;;4.67;4.33;;;25.30;30.90;;;;;;10310309;28;20219;-71
2021/09/13 18:51:25;;;;;;;4.70;4.40;;;25.10;31.00;;;;;;10308370;28;20238;-72
2021/09/13 18:56:29;;;;;;;4.43;4.13;;;25.00;31.00;;;;;;10310433;28;20578;-71
2021/09/13 19:01:36;;;;;;;4.53;4.23;;;24.80;31.10;;;;;;10289643;28;20609;-71
2021/09/13 19:06:46;;;;;;;4.37;4.00;;;24.70;31.60;;;;;;10315051;28;20235;-72
2021/09/13 19:11:49;;;;;;;4.77;4.40;;;24.60;31.50;;;;;;10324529;28;20311;-72
2021/09/13 19:16:57;;;;;;;4.03;3.73;;;24.50;31.70;;;;;;10329589;28;20235;-72
2021/09/13 19:22:01;;;;;;;5.20;4.47;;;24.40;31.90;;;;;;10320714;28;20246;-72
2021/09/13 19:27:04;;;;;;;4.67;4.37;;;24.30;31.80;;;;;;10313433;28;20699;-72
2021/09/13 19:32:09;;;;;;;4.60;4.30;;;24.20;31.80;;;;;;10317602;28;20241;-71
2021/09/13 19:37:12;;;;;;;4.97;4.67;;;24.20;32.20;;;;;;10307088;28;20890;-72
2021/09/13 19:42:15;;;;;;;4.87;4.57;;;24.10;31.90;;;;;;10314161;28;20222;-72
2021/09/13 19:47:20;;;;;;;4.90;4.60;;;24.00;32.00;;;;;;10312555;28;20238;-72
2021/09/13 19:52:24;;;;;;;4.87;4.57;;;23.90;32.10;;;;;;10315629;28;20245;-72
2021/09/13 19:57:28;;;;;;;5.73;5.23;;;23.80;31.90;;;;;;10315249;28;20234;-72
2021/09/13 20:02:37;;;;;;;6.50;6.00;;;23.70;32.20;;;;;;10317537;28;20303;-72
2021/09/13 20:07:40;;;;;;;6.43;6.00;;;23.50;32.30;;;;;;10316816;28;20258;-73
2021/09/13 20:12:44;;;;;;;7.43;6.83;;;23.30;32.20;;;;;;10318255;28;20963;-70
2021/09/13 20:17:49;;;;;;;8.60;7.70;;;23.10;32.50;;;;;;10323851;28;20222;-70
2021/09/13 20:22:53;;;;;;;7.20;6.60;;;22.90;33.30;;;;;;10320706;28;20235;-70
2021/09/13 20:27:56;;;;;;;7.03;6.43;;;22.70;33.20;;;;;;10320496;28;20218;-71
2021/09/13 20:33:01;;;;;;;6.90;6.40;;;22.60;33.40;;;;;;10323848;28;20612;-72
2021/09/13 20:38:04;;;;;;;6.07;5.67;;;22.50;33.90;;;;;;10305741;28;20234;-70
2021/09/13 20:43:08;;;;;;;5.80;5.40;;;22.50;33.60;;;;;;10317222;28;20238;-71
2021/09/13 20:48:12;;;;;;;5.03;4.63;;;22.40;33.60;;;;;;10310673;28;20231;-71
2021/09/13 20:53:16;;;;;;;6.70;6.10;;;22.40;34.00;;;;;;10320000;28;20239;-71
2021/09/13 20:58:19;;;;;;;5.60;5.17;;;22.40;34.00;;;;;;10316779;28;20235;-71
2021/09/13 21:03:24;;;;;;;5.67;5.27;;;22.30;33.80;;;;;;10320744;28;20245;-71
2021/09/13 21:08:27;;;;;;;5.97;5.57;;;22.20;34.20;;;;;;10317068;28;20242;-71
2021/09/13 21:13:31;;;;;;;6.20;5.77;;;22.10;34.00;;;;;;10318816;28;20755;-71
2021/09/13 21:18:36;;;;;;;6.20;5.70;;;22.10;34.30;;;;;;10320925;28;20704;-71
2021/09/13 21:23:39;;;;;;;5.77;5.37;;;22.10;34.60;;;;;;10323068;28;20226;-70
2021/09/13 21:28:43;;;;;;;6.93;6.43;;;22.10;34.30;;;;;;10324807;28;20223;-71
2021/09/13 21:33:47;;;;;;;6.70;6.10;;;22.00;34.30;;;;;;10324978;28;20230;-71
2021/09/13 21:38:51;;;;;;;6.60;6.10;;;21.90;34.60;;;;;;10323596;28;20326;-71
2021/09/13 21:43:54;;;;;;;6.60;6.10;;;21.80;34.30;;;;;;10319557;28;20233;-71
2021/09/13 21:48:59;;;;;;;6.47;5.97;;;21.70;34.30;;;;;;10326981;28;20692;-71
2021/09/13 21:54:02;;;;;;;5.60;5.10;;;21.50;34.80;;;;;;10322692;28;20229;-71
2021/09/13 21:59:05;;;;;;;6.77;6.27;;;21.50;34.60;;;;;;10323740;28;20242;-71
2021/09/13 22:04:10;;;;;;;5.40;5.00;;;21.40;34.90;;;;;;10329413;28;20242;-71
2021/09/13 22:09:14;;;;;;;7.70;6.50;;;21.30;35.10;;;;;;10328431;28;20230;-71
2021/09/13 22:14:17;;;;;;;6.20;5.70;;;21.30;35.10;;;;;;10318076;28;20750;-71
2021/09/13 22:19:22;;;;;;;6.63;6.03;;;21.20;35.20;;;;;;10322571;28;20316;-71
2021/09/13 22:24:25;;;;;;;6.40;5.83;;;21.10;35.50;;;;;;10327366;28;20222;-71
2021/09/13 22:29:29;;;;;;;6.30;5.80;;;21.10;35.30;;;;;;10329335;28;20222;-70
2021/09/13 22:34:33;;;;;;;6.00;5.60;;;21.10;35.40;;;;;;10323033;28;20230;-71
2021/09/13 22:39:37;;;;;;;6.13;5.63;;;21.10;35.50;;;;;;10320405;28;20231;-71
2021/09/13 22:44:41;;;;;;;6.37;5.80;;;21.10;35.20;;;;;;10317127;28;20663;-71
2021/09/13 22:49:45;;;;;;;6.20;5.70;;;21.00;35.10;;;;;;10331450;28;20297;-71
2021/09/13 22:54:48;;;;;;;6.00;5.60;;;21.00;35.40;;;;;;10331167;28;20234;-71
2021/09/13 22:59:52;;;;;;;6.63;6.03;;;21.00;35.10;;;;;;10327062;28;20231;-71
2021/09/13 23:04:57;;;;;;;7.10;6.50;;;20.90;35.30;;;;;;10327086;28;20588;-71
2021/09/13 23:10:00;;;;;;;6.20;5.70;;;20.90;35.70;;;;;;10331456;28;20238;-71
2021/09/13 23:15:04;;;;;;;6.63;6.03;;;20.80;35.30;;;;;;10334510;28;20234;-71
2021/09/13 23:20:12;;;;;;;5.87;5.37;;;20.70;35.60;;;;;;10327431;28;20235;-71
2021/09/13 23:25:15;;;;;;;6.07;5.57;;;20.60;35.90;;;;;;10327457;28;20230;-71
2021/09/13 23:30:18;;;;;;;6.33;5.83;;;20.60;35.50;;;;;;10324689;28;20727;-71
2021/09/13 23:35:23;;;;;;;6.53;6.03;;;20.50;35.50;;;;;;10332275;28;20234;-71
2021/09/13 23:40:26;;;;;;;6.53;6.03;;;20.40;35.70;;;;;;10330429;28;20223;-70
2021/09/13 23:45:30;;;;;;;5.90;5.40;;;20.20;35.70;;;;;;10322796;28;20314;-71
2021/09/13 23:50:34;;;;;;;6.57;6.07;;;20.10;35.90;;;;;;10330515;28;20241;-70
2021/09/13 23:55:38;;;;;;;5.90;5.40;;;20.00;36.50;;;;;;10327522;28;20234;-71
